Time;durP1;ratioP1;P1;durP2;ratioP2;P2;SDS_P1;SDS_P2;PMS_P1;PMS_P2;Temp;Humidity;BMP_temperature;BMP_pressure;BME280_temperature;BME280_humidity;BME280_pressure;Samples;Min_cycle;Max_cycle;Signal;HPM_P1;HPM_P2
2023/11/11 00:01:02;;;;;;;87.10;67.40;;;;;;;8.17;100.00;97548.87;109859;1248;59772;-73
2023/11/11 00:03:48;;;;;;;85.10;66.30;;;;;;;8.16;100.00;97540.75;109866;1251;66750;-73
2023/11/11 00:06:15;;;;;;;86.50;70.30;;;;;;;8.16;100.00;97540.11;109803;1250;61426;-73
2023/11/11 00:08:42;;;;;;;87.80;71.00;;;;;;;8.14;100.00;97538.23;109781;1251;71525;-73
2023/11/11 00:11:09;;;;;;;89.40;72.50;;;;;;;8.14;100.00;97541.80;109816;1249;59771;-73
2023/11/11 00:13:35;;;;;;;92.30;70.10;;;;;;;8.13;100.00;97546.10;109823;1250;59748;-73
2023/11/11 00:16:02;;;;;;;82.50;69.00;;;;;;;8.13;100.00;97544.55;109813;1250;66656;-72
2023/11/11 00:18:28;;;;;;;79.70;65.40;;;;;;;8.13;100.00;97548.96;109560;1250;60700;-73
2023/11/11 00:20:56;;;;;;;83.20;68.10;;;;;;;8.12;100.00;97545.83;109403;1251;59849;-73
2023/11/11 00:23:23;;;;;;;80.60;66.90;;;;;;;8.12;100.00;97547.69;109805;1251;59811;-73
2023/11/11 00:25:49;;;;;;;84.40;68.30;;;;;;;8.10;100.00;97551.83;109796;1250;60145;-73
2023/11/11 00:28:16;;;;;;;83.30;70.10;;;;;;;8.09;100.00;97557.98;109833;1251;65661;-73
2023/11/11 00:30:44;;;;;;;82.70;68.80;;;;;;;8.08;100.00;97553.08;109874;1251;59968;-73
2023/11/11 00:33:11;;;;;;;88.40;71.60;;;;;;;8.08;100.00;97552.36;109395;1249;65224;-72
2023/11/11 00:35:38;;;;;;;89.00;72.40;;;;;;;8.08;100.00;97550.98;109770;1249;59766;-72
2023/11/11 00:38:09;;;;;;;82.40;69.60;;;;;;;8.07;100.00;97546.04;109803;1251;59898;-73
2023/11/11 00:40:39;;;;;;;86.70;71.60;;;;;;;8.07;100.00;97552.59;109803;1250;66881;-73
2023/11/11 00:43:05;;;;;;;88.40;72.00;;;;;;;8.07;100.00;97555.60;109825;1253;59785;-73
2023/11/11 00:45:32;;;;;;;88.90;72.90;;;;;;;8.08;100.00;97550.94;109752;1251;64139;-72
2023/11/11 00:48:00;;;;;;;90.20;72.10;;;;;;;8.09;100.00;97548.95;109767;1253;60231;-72
2023/11/11 00:50:27;;;;;;;83.60;69.30;;;;;;;8.08;100.00;97549.55;109782;1251;59744;-73
2023/11/11 00:52:53;;;;;;;88.10;71.60;;;;;;;8.06;100.00;97548.11;109825;1250;66698;-73
2023/11/11 00:55:21;;;;;;;89.00;73.00;;;;;;;8.03;100.00;97551.88;109789;1251;60134;-72
2023/11/11 00:57:48;;;;;;;88.40;70.50;;;;;;;8.02;100.00;97549.88;109507;1251;62626;-73
2023/11/11 01:00:19;;;;;;;95.70;76.40;;;;;;;7.99;100.00;97548.48;109770;1251;59801;-72
2023/11/11 01:02:45;;;;;;;90.00;75.60;;;;;;;7.98;100.00;97550.39;109392;1254;59838;-72
2023/11/11 01:05:12;;;;;;;94.80;76.80;;;;;;;7.97;100.00;97547.59;109777;1250;65195;-73
2023/11/11 01:07:39;;;;;;;92.50;73.80;;;;;;;7.98;100.00;97543.81;109563;1251;59826;-72
2023/11/11 01:10:07;;;;;;;94.80;77.10;;;;;;;7.98;100.00;97544.52;109816;1250;62411;-72
2023/11/11 01:12:34;;;;;;;86.40;68.90;;;;;;;7.98;100.00;97543.63;109752;1250;59824;-73
2023/11/11 01:15:07;;;;;;;81.90;66.80;;;;;;;7.98;100.00;97549.98;109776;1253;59879;-73
2023/11/11 01:17:35;;;;;;;78.00;63.70;;;;;;;7.96;100.00;97547.86;109816;1250;65670;-73
2023/11/11 01:20:02;;;;;;;81.30;63.30;;;;;;;7.94;100.00;97545.88;109794;1251;60132;-73
2023/11/11 01:22:29;;;;;;;77.60;62.30;;;;;;;7.92;100.00;97543.04;109798;1250;62411;-73
2023/11/11 01:24:56;;;;;;;73.40;59.80;;;;;;;7.91;100.00;97543.29;109794;1253;59829;-73
2023/11/11 01:27:23;;;;;;;76.60;58.10;;;;;;;7.90;100.00;97543.20;109839;1249;59772;-73
2023/11/11 01:29:49;;;;;;;75.10;59.30;;;;;;;7.88;100.00;97539.45;109835;1250;67733;-72
2023/11/11 01:32:17;;;;;;;80.00;60.20;;;;;;;7.86;100.00;97531.44;109801;1251;59882;-72
2023/11/11 01:34:43;;;;;;;77.70;60.50;;;;;;;7.86;100.00;97527.27;109802;1249;64195;-73
2023/11/11 01:37:10;;;;;;;79.10;58.80;;;;;;;7.85;100.00;97526.28;109739;1249;60557;-73
2023/11/11 01:39:36;;;;;;;78.20;59.50;;;;;;;7.84;100.00;97520.67;109818;1251;60135;-73
2023/11/11 01:42:05;;;;;;;73.00;57.30;;;;;;;7.84;100.00;97520.88;109808;1251;66681;-73
2023/11/11 01:44:31;;;;;;;73.80;57.30;;;;;;;7.83;100.00;97512.48;109538;1249;60640;-72
2023/11/11 01:46:58;;;;;;;70.60;55.70;;;;;;;7.82;100.00;97511.48;109795;1251;64182;-72
2023/11/11 01:49:25;;;;;;;69.60;55.10;;;;;;;7.85;100.00;97510.15;109781;1250;59753;-72
2023/11/11 01:51:52;;;;;;;72.00;56.80;;;;;;;7.86;100.00;97507.09;109797;1251;59789;-72
2023/11/11 01:54:21;;;;;;;72.00;58.40;;;;;;;7.88;100.00;97503.74;109840;1251;68154;-72
2023/11/11 01:56:48;;;;;;;80.70;65.00;;;;;;;7.88;100.00;97501.77;109824;1250;60648;-73
2023/11/11 01:59:17;;;;;;;77.50;60.90;;;;;;;7.88;100.00;97497.52;109780;1249;64442;-72
2023/11/11 02:01:45;;;;;;;73.40;59.10;;;;;;;7.89;100.00;97497.64;109787;1249;59766;-72
2023/11/11 02:04:12;;;;;;;80.50;61.60;;;;;;;7.89;100.00;97501.18;109799;1250;59830;-73
2023/11/11 02:06:39;;;;;;;77.90;62.40;;;;;;;7.88;100.00;97502.83;109807;1250;66616;-73
2023/11/11 02:09:05;;;;;;;81.60;62.20;;;;;;;7.89;100.00;97505.09;109856;1251;60980;-73
2023/11/11 02:11:32;;;;;;;80.40;63.00;;;;;;;7.89;100.00;97504.15;109411;1251;63740;-73
2023/11/11 02:13:59;;;;;;;78.80;61.30;;;;;;;7.89;100.00;97502.07;109789;1250;59750;-73
2023/11/11 02:16:28;;;;;;;77.70;60.00;;;;;;;7.90;100.00;97497.42;109749;1251;59767;-73
2023/11/11 02:18:54;;;;;;;70.10;58.30;;;;;;;7.90;100.00;97491.70;109792;1250;66988;-73
2023/11/11 02:21:21;;;;;;;66.80;51.50;;;;;;;7.91;100.00;97492.22;109541;1254;60414;-73
2023/11/11 02:23:48;;;;;;;67.10;52.20;;;;;;;7.90;100.00;97497.02;109788;1250;64083;-73
2023/11/11 02:26:15;;;;;;;59.10;47.60;;;;;;;7.89;100.00;97490.95;109541;1250;59789;-73
2023/11/11 02:28:41;;;;;;;56.10;45.70;;;;;;;7.87;100.00;97493.76;109798;1249;59798;-74
2023/11/11 02:31:08;;;;;;;48.70;38.60;;;;;;;7.85;100.00;97497.06;109518;1248;73504;-73
2023/11/11 02:33:35;;;;;;;46.00;37.70;;;;;;;7.83;100.00;97497.57;109808;1249;59749;-73
2023/11/11 02:36:02;;;;;;;41.30;33.90;;;;;;;7.84;100.00;97496.84;109773;1249;64327;-73
2023/11/11 02:38:28;;;;;;;40.00;32.40;;;;;;;7.83;100.00;97494.24;109787;1249;60039;-73
2023/11/11 02:40:55;;;;;;;36.90;31.70;;;;;;;7.82;100.00;97493.23;109470;1249;60057;-73
2023/11/11 02:43:21;;;;;;;35.70;30.00;;;;;;;7.83;100.00;97497.30;109798;1250;60585;-73
2023/11/11 02:45:48;;;;;;;32.20;28.00;;;;;;;7.83;100.00;97496.87;109801;1251;59833;-73
2023/11/11 02:48:14;;;;;;;34.60;30.40;;;;;;;7.84;100.00;97496.83;109780;1249;59821;-73
2023/11/11 02:50:41;;;;;;;35.60;31.40;;;;;;;7.85;100.00;97492.51;109765;1251;59715;-73
2023/11/11 02:53:08;;;;;;;34.10;29.80;;;;;;;7.84;100.00;97495.95;109769;1249;59823;-73
2023/11/11 02:55:34;;;;;;;31.60;28.10;;;;;;;7.83;100.00;97497.57;109812;1251;68029;-73
2023/11/11 02:58:01;;;;;;;33.10;29.60;;;;;;;7.83;100.00;97494.46;109806;1250;60192;-73
2023/11/11 03:00:33;;;;;;;37.40;30.10;;;;;;;7.80;100.00;97489.88;109778;1249;62914;-73
2023/11/11 03:03:00;;;;;;;37.40;29.20;;;;;;;7.77;100.00;97483.80;109736;1249;59774;-73
2023/11/11 03:05:29;;;;;;;37.70;31.60;;;;;;;7.75;100.00;97480.37;109772;1251;59728;-73
2023/11/11 03:07:56;;;;;;;38.10;33.20;;;;;;;7.75;100.00;97478.49;109785;1251;65726;-74
2023/11/11 03:10:22;;;;;;;40.70;33.40;;;;;;;7.75;100.00;97476.35;109741;1249;61044;-73
2023/11/11 03:12:49;;;;;;;35.60;31.50;;;;;;;7.76;100.00;97474.14;109544;1251;64043;-73
2023/11/11 03:15:15;;;;;;;41.30;33.80;;;;;;;7.77;100.00;97472.65;109763;1250;59776;-73
2023/11/11 03:17:43;;;;;;;41.40;34.20;;;;;;;7.77;100.00;97473.02;109405;1250;60009;-73
2023/11/11 03:20:10;;;;;;;42.50;36.20;;;;;;;7.76;100.00;97474.85;109763;1251;66817;-73
2023/11/11 03:22:37;;;;;;;43.30;36.70;;;;;;;7.75;100.00;97472.98;109549;1250;60843;-73
2023/11/11 03:25:05;;;;;;;39.80;35.50;;;;;;;7.76;100.00;97473.38;109524;1249;62805;-73
2023/11/11 03:27:32;;;;;;;42.10;36.40;;;;;;;7.78;100.00;97467.93;109773;1250;59724;-74
2023/11/11 03:29:58;;;;;;;39.30;33.40;;;;;;;7.80;100.00;97467.61;109792;1249;59821;-74
2023/11/11 03:32:25;;;;;;;39.50;33.30;;;;;;;7.80;100.00;97467.23;109503;1250;67916;-74
2023/11/11 03:34:52;;;;;;;32.30;28.70;;;;;;;7.82;100.00;97466.05;109822;1250;59953;-74
2023/11/11 03:37:18;;;;;;;31.40;28.10;;;;;;;7.82;100.00;97462.13;109781;1249;59905;-73
2023/11/11 03:39:45;;;;;;;32.80;28.40;;;;;;;7.83;100.00;97458.73;109803;1249;59829;-74
2023/11/11 03:42:11;;;;;;;32.70;28.10;;;;;;;7.82;100.00;97454.86;109778;1249;60003;-74
2023/11/11 03:44:38;;;;;;;30.90;27.60;;;;;;;7.83;100.00;97454.48;109785;1249;66835;-74
2023/11/11 03:47:06;;;;;;;32.50;28.90;;;;;;;7.81;100.00;97455.64;109801;1250;59809;-74
2023/11/11 03:49:32;;;;;;;27.50;24.60;;;;;;;7.80;100.00;97454.86;109788;1249;62588;-74
2023/11/11 03:51:59;;;;;;;27.00;24.00;;;;;;;7.79;100.00;97451.40;109530;1250;59817;-74
2023/11/11 03:54:26;;;;;;;26.10;23.40;;;;;;;7.79;100.00;97449.98;109837;1250;59786;-73
2023/11/11 03:56:52;;;;;;;26.80;24.00;;;;;;;7.79;100.00;97449.63;109800;1250;65698;-73
2023/11/11 03:59:19;;;;;;;30.20;27.00;;;;;;;7.81;100.00;97450.95;109564;1251;60185;-73
2023/11/11 04:01:46;;;;;;;30.20;25.60;;;;;;;7.81;100.00;97449.10;109809;1249;60150;-73
2023/11/11 04:04:12;;;;;;;29.00;25.90;;;;;;;7.81;100.00;97448.80;109829;1249;59831;-73
2023/11/11 04:06:39;;;;;;;27.10;24.20;;;;;;;7.81;100.00;97443.69;109839;1251;59880;-73
2023/11/11 04:09:06;;;;;;;26.60;23.60;;;;;;;7.78;100.00;97446.37;109824;1249;65452;-73
2023/11/11 04:11:33;;;;;;;25.20;22.70;;;;;;;7.79;100.00;97436.90;109811;1249;60340;-73
2023/11/11 04:14:01;;;;;;;26.10;23.50;;;;;;;7.81;100.00;97431.49;109824;1250;62878;-73
2023/11/11 04:16:29;;;;;;;25.30;21.80;;;;;;;7.81;100.00;97429.66;109816;1249;59763;-73
2023/11/11 04:18:58;;;;;;;25.10;22.40;;;;;;;7.81;100.00;97425.60;109487;1250;60065;-73
2023/11/11 04:21:25;;;;;;;22.40;19.90;;;;;;;7.81;100.00;97430.37;109817;1249;66982;-73
2023/11/11 04:23:51;;;;;;;23.40;21.00;;;;;;;7.81;100.00;97430.72;109778;1250;59819;-73
2023/11/11 04:26:18;;;;;;;21.70;19.50;;;;;;;7.81;100.00;97431.63;109791;1249;63766;-73
2023/11/11 04:28:44;;;;;;;21.60;19.50;;;;;;;7.80;100.00;97432.66;109815;1249;60092;-73
2023/11/11 04:31:12;;;;;;;21.40;19.20;;;;;;;7.77;100.00;97431.48;109809;1249;59738;-73
2023/11/11 04:33:38;;;;;;;22.80;20.50;;;;;;;7.74;100.00;97424.92;109790;1249;65584;-72
2023/11/11 04:36:05;;;;;;;25.00;21.30;;;;;;;7.73;100.00;97422.77;109822;1250;59765;-72
2023/11/11 04:38:32;;;;;;;23.80;21.30;;;;;;;7.72;100.00;97421.57;109823;1249;65732;-73
2023/11/11 04:40:58;;;;;;;24.00;21.50;;;;;;;7.70;100.00;97417.09;109787;1249;59722;-73
2023/11/11 04:43:25;;;;;;;23.70;21.20;;;;;;;7.70;100.00;97413.77;109777;1249;59656;-73
2023/11/11 04:45:52;;;;;;;23.90;21.50;;;;;;;7.70;100.00;97420.66;109781;1250;76573;-73
2023/11/11 04:48:18;;;;;;;32.40;29.40;;;;;;;7.69;100.00;97417.88;109805;1249;60114;-74
2023/11/11 04:50:45;;;;;;;30.40;27.30;;;;;;;7.71;100.00;97421.11;109753;1249;62531;-74
2023/11/11 04:53:11;;;;;;;33.20;29.80;;;;;;;7.72;100.00;97418.95;109812;1250;59779;-75
2023/11/11 04:55:38;;;;;;;31.40;28.30;;;;;;;7.71;100.00;97414.77;109855;1249;59849;-74
2023/11/11 04:58:04;;;;;;;25.80;23.10;;;;;;;7.69;100.00;97409.58;109821;1249;60145;-73
2023/11/11 05:00:31;;;;;;;25.50;22.70;;;;;;;7.69;100.00;97410.50;109841;1249;61040;-73
2023/11/11 05:02:57;;;;;;;24.50;21.90;;;;;;;7.69;100.00;97411.23;109761;1250;59879;-73
2023/11/11 05:05:24;;;;;;;24.30;21.60;;;;;;;7.66;100.00;97417.96;109405;1249;59791;-74
2023/11/11 05:07:51;;;;;;;25.30;22.70;;;;;;;7.64;100.00;97423.81;109825;1249;60126;-74
2023/11/11 05:10:17;;;;;;;25.00;22.40;;;;;;;7.63;100.00;97428.52;109799;1250;66519;-75
2023/11/11 05:12:47;;;;;;;26.00;23.30;;;;;;;7.62;100.00;97433.35;109820;1250;60198;-74
2023/11/11 05:15:17;;;;;;;28.70;25.60;;;;;;;7.62;100.00;97431.23;109827;1249;62519;-74
2023/11/11 05:17:44;;;;;;;28.90;25.90;;;;;;;7.61;100.00;97431.64;109805;1249;59758;-73
2023/11/11 05:20:13;;;;;;;32.20;28.80;;;;;;;7.61;100.00;97439.93;109823;1249;59908;-73
2023/11/11 05:22:43;;;;;;;34.60;30.40;;;;;;;7.61;100.00;97440.99;109583;1249;66550;-73
2023/11/11 05:25:10;;;;;;;;;;;;;;;7.62;100.00;97441.84;109586;1250;60184;-72
2023/11/11 05:27:37;;;;;;;33.40;29.80;;;;;;;7.61;100.00;97440.64;109844;1249;65289;-73
2023/11/11 05:30:05;;;;;;;38.80;34.00;;;;;;;7.62;100.00;97440.89;109813;1250;59759;-73
2023/11/11 05:32:32;;;;;;;36.90;32.90;;;;;;;7.64;100.00;97440.78;109811;1249;59691;-73
2023/11/11 05:34:59;;;;;;;36.70;32.70;;;;;;;7.65;100.00;97439.78;109605;1249;66896;-73
2023/11/11 05:37:25;;;;;;;33.20;29.70;;;;;;;7.65;100.00;97442.31;109517;1250;59979;-73
2023/11/11 05:39:52;;;;;;;33.00;29.40;;;;;;;7.65;100.00;97444.08;109833;1249;64331;-73
2023/11/11 05:42:19;;;;;;;31.90;27.10;;;;;;;7.65;100.00;97448.66;109784;1250;59921;-73
2023/11/11 05:44:45;;;;;;;28.20;25.20;;;;;;;7.65;100.00;97452.89;109839;1249;60025;-73
2023/11/11 05:47:12;;;;;;;28.60;25.60;;;;;;;7.64;100.00;97455.44;109864;1250;67334;-73
2023/11/11 05:49:44;;;;;;;28.40;25.50;;;;;;;7.63;100.00;97455.89;109845;1249;60217;-73
2023/11/11 05:52:11;;;;;;;29.40;26.30;;;;;;;7.64;100.00;97455.82;109773;1249;62589;-73
2023/11/11 05:54:37;;;;;;;33.10;29.50;;;;;;;7.63;100.00;97449.11;109819;1250;59780;-73
2023/11/11 05:57:04;;;;;;;30.20;27.20;;;;;;;7.64;100.00;97455.43;109475;1249;59792;-73
2023/11/11 05:59:31;;;;;;;30.20;27.10;;;;;;;7.65;100.00;97456.38;109811;1249;65418;-73
2023/11/11 06:01:57;;;;;;;30.30;27.20;;;;;;;7.68;100.00;97457.62;109838;1249;69894;-73
2023/11/11 06:04:25;;;;;;;30.50;26.90;;;;;;;7.68;100.00;97460.56;109796;1249;59896;-73
2023/11/11 06:06:51;;;;;;;30.10;27.10;;;;;;;7.69;100.00;97458.39;109778;1249;59838;-73
2023/11/11 06:09:24;;;;;;;31.40;28.10;;;;;;;7.69;100.00;97457.38;109845;1250;59828;-73
2023/11/11 06:11:50;;;;;;;30.50;27.40;;;;;;;7.69;100.00;97459.63;109851;1249;65205;-73
2023/11/11 06:14:18;;;;;;;30.80;27.60;;;;;;;7.72;100.00;97464.53;109872;1249;59964;-73
2023/11/11 06:16:45;;;;;;;31.60;28.40;;;;;;;7.73;100.00;97464.42;109814;1249;63740;-73
2023/11/11 06:19:13;;;;;;;32.60;29.20;;;;;;;7.75;100.00;97463.09;109557;1249;59737;-73
2023/11/11 06:21:39;;;;;;;30.10;27.00;;;;;;;7.77;100.00;97469.48;109821;1250;59841;-73
2023/11/11 06:24:06;;;;;;;29.90;26.80;;;;;;;7.77;100.00;97474.03;109859;1248;59804;-74
2023/11/11 06:26:36;;;;;;;29.00;25.80;;;;;;;7.77;100.00;97472.09;109477;1250;60011;-73
2023/11/11 06:29:03;;;;;;;28.10;25.30;;;;;;;7.77;100.00;97471.75;109850;1250;64044;-73
2023/11/11 06:31:32;;;;;;;27.40;24.60;;;;;;;7.78;100.00;97469.56;109825;1249;59828;-73
2023/11/11 06:34:00;;;;;;;27.10;24.30;;;;;;;7.78;100.00;97470.20;109808;1249;59802;-74
2023/11/11 06:36:27;;;;;;;34.20;28.20;;;;;;;7.77;100.00;97478.98;109853;1250;67014;-73
2023/11/11 06:38:53;;;;;;;29.30;25.80;;;;;;;7.77;100.00;97479.17;109780;1249;59992;-72
2023/11/11 06:41:22;;;;;;;28.00;25.00;;;;;;;7.77;100.00;97477.39;109803;1249;62650;-72
2023/11/11 06:43:49;;;;;;;23.50;21.10;;;;;;;7.79;100.00;97473.68;109390;1249;59849;-73
2023/11/11 06:46:15;;;;;;;22.80;19.20;;;;;;;7.82;100.00;97472.96;109859;1249;59748;-73
2023/11/11 06:48:42;;;;;;;20.80;18.60;;;;;;;7.84;100.00;97472.95;109817;1249;65288;-73
2023/11/11 06:51:09;;;;;;;21.80;19.80;;;;;;;7.86;100.00;97472.27;109869;1250;61402;-73
2023/11/11 06:53:35;;;;;;;22.70;20.40;;;;;;;7.87;100.00;97466.86;109792;1249;65193;-73
2023/11/11 06:56:03;;;;;;;21.40;19.20;;;;;;;7.89;100.00;97465.28;109814;1249;59782;-73
2023/11/11 06:58:29;;;;;;;22.60;20.20;;;;;;;7.91;100.00;97466.19;109823;1249;59659;-73
2023/11/11 07:00:58;;;;;;;23.70;21.20;;;;;;;7.95;100.00;97466.59;109833;1250;65613;-73
2023/11/11 07:03:25;;;;;;;25.10;22.50;;;;;;;7.99;100.00;97464.45;109820;1249;59831;-73
2023/11/11 07:05:51;;;;;;;24.40;21.80;;;;;;;8.05;100.00;97463.13;109778;1250;64966;-74
2023/11/11 07:08:18;;;;;;;26.90;23.20;;;;;;;8.09;100.00;97463.52;109877;1249;59747;-74
2023/11/11 07:10:45;;;;;;;27.30;24.50;;;;;;;8.11;100.00;97467.73;109814;1249;60543;-73
2023/11/11 07:13:12;;;;;;;26.30;23.70;;;;;;;8.14;100.00;97473.71;109820;1249;68031;-74
2023/11/11 07:15:41;;;;;;;26.90;24.30;;;;;;;8.16;100.00;97475.11;109886;1250;59792;-74
2023/11/11 07:18:09;;;;;;;29.50;26.50;;;;;;;8.18;100.00;97476.39;109495;1250;64511;-74
2023/11/11 07:20:36;;;;;;;32.10;28.90;;;;;;;8.20;100.00;97474.65;109848;1249;59938;-74
2023/11/11 07:23:02;;;;;;;33.10;29.60;;;;;;;8.23;100.00;97472.98;109854;1249;59838;-74
2023/11/11 07:25:31;;;;;;;35.10;30.50;;;;;;;8.25;100.00;97474.06;109809;1250;59756;-74
2023/11/11 07:27:57;;;;;;;33.40;29.90;;;;;;;8.29;100.00;97473.77;109833;1249;60061;-74
2023/11/11 07:30:24;;;;;;;31.50;28.20;;;;;;;8.30;100.00;97472.69;109836;1249;59836;-74
2023/11/11 07:32:51;;;;;;;33.50;30.10;;;;;;;8.32;100.00;97470.63;109812;1250;59762;-75
2023/11/11 07:35:17;;;;;;;32.90;29.40;;;;;;;8.32;100.00;97469.72;109503;1250;59868;-75
2023/11/11 07:37:46;;;;;;;32.40;28.90;;;;;;;8.34;100.00;97468.36;109832;1250;67877;-74
2023/11/11 07:40:14;;;;;;;30.80;26.50;;;;;;;8.38;100.00;97464.02;109815;1249;59941;-74
2023/11/11 07:42:42;;;;;;;33.50;29.60;;;;;;;8.39;100.00;97465.34;109853;1249;65088;-74
2023/11/11 07:45:09;;;;;;;35.70;28.50;;;;;;;8.40;100.00;97468.61;109806;1250;59759;-75
2023/11/11 07:47:35;;;;;;;31.70;28.30;;;;;;;8.41;100.00;97472.61;109873;1249;59841;-75
2023/11/11 07:50:02;;;;;;;31.00;27.70;;;;;;;8.39;100.00;97475.41;109874;1249;65501;-74
2023/11/11 07:52:29;;;;;;;31.80;28.30;;;;;;;8.37;100.00;97477.52;109868;1249;61345;-74
2023/11/11 07:54:58;;;;;;;28.20;25.30;;;;;;;8.35;100.00;97480.86;109863;1250;64978;-74
2023/11/11 07:57:25;;;;;;;29.20;25.60;;;;;;;8.35;100.00;97478.34;109795;1250;59752;-74
2023/11/11 07:59:52;;;;;;;28.10;25.20;;;;;;;8.34;100.00;97480.89;109888;1249;59736;-74
2023/11/11 08:02:18;;;;;;;28.90;25.60;;;;;;;8.33;100.00;97477.27;109883;1250;76629;-74
2023/11/11 08:04:45;;;;;;;31.90;27.30;;;;;;;8.34;100.00;97473.87;109512;1249;60375;-74
2023/11/11 08:07:13;;;;;;;30.20;26.70;;;;;;;8.35;100.00;97477.45;109816;1250;62541;-74
2023/11/11 08:09:39;;;;;;;32.90;27.60;;;;;;;8.36;100.00;97480.00;109515;1250;59737;-73
2023/11/11 08:12:07;;;;;;;35.50;30.40;;;;;;;8.37;100.00;97480.14;109852;1250;59788;-74
2023/11/11 08:14:33;;;;;;;39.20;32.00;;;;;;;8.38;100.00;97478.64;109499;1249;66828;-74
2023/11/11 08:17:00;;;;;;;37.80;33.20;;;;;;;8.43;100.00;97478.96;109493;1249;59818;-74
2023/11/11 08:19:27;;;;;;;42.10;34.70;;;;;;;8.48;100.00;97477.86;109825;1249;64080;-73
2023/11/11 08:21:53;;;;;;;36.90;32.90;;;;;;;8.50;100.00;97470.74;109846;1250;60061;-74
2023/11/11 08:24:20;;;;;;;41.80;36.40;;;;;;;8.54;100.00;97467.79;109508;1250;59843;-74
2023/11/11 08:26:48;;;;;;;42.20;35.10;;;;;;;8.57;100.00;97469.84;109841;1248;68083;-74
2023/11/11 08:29:15;;;;;;;39.30;34.80;;;;;;;8.63;100.00;97463.55;109840;1249;59895;-74
2023/11/11 08:31:42;;;;;;;43.20;34.30;;;;;;;8.64;100.00;97466.29;109458;1250;64215;-75
2023/11/11 08:34:09;;;;;;;38.90;34.70;;;;;;;8.65;100.00;97470.59;109811;1249;59842;-74
2023/11/11 08:36:37;;;;;;;37.90;32.70;;;;;;;8.66;100.00;97475.10;109843;1250;60154;-75
2023/11/11 08:39:05;;;;;;;38.80;32.80;;;;;;;8.67;100.00;97477.11;109437;1249;66806;-74
2023/11/11 08:41:31;;;;;;;33.70;29.00;;;;;;;8.70;100.00;97476.59;109873;1249;61465;-74
2023/11/11 08:43:58;;;;;;;35.60;31.70;;;;;;;8.73;100.00;97478.45;109838;1249;62504;-74
2023/11/11 08:46:24;;;;;;;37.80;32.60;;;;;;;8.77;100.00;97482.89;109770;1249;60030;-74
2023/11/11 08:48:51;;;;;;;35.20;29.50;;;;;;;8.81;100.00;97483.42;109800;1250;59842;-74
2023/11/11 08:51:18;;;;;;;38.80;34.00;;;;;;;8.85;100.00;97482.75;109848;1250;67810;-74
2023/11/11 08:53:45;;;;;;;34.50;30.50;;;;;;;8.88;100.00;97480.69;109859;1251;59778;-73
2023/11/11 08:56:13;;;;;;;37.30;33.20;;;;;;;8.94;100.00;97483.20;109795;1250;62931;-74
2023/11/11 08:58:39;;;;;;;38.80;32.80;;;;;;;9.00;100.00;97483.08;109796;1250;59824;-74
2023/11/11 09:01:06;;;;;;;40.30;32.90;;;;;;;9.05;100.00;97477.14;109860;1249;60691;-74
2023/11/11 09:03:32;;;;;;;38.00;32.40;;;;;;;9.10;100.00;97480.63;109858;1250;66889;-74
2023/11/11 09:05:59;;;;;;;35.40;30.70;;;;;;;9.14;100.00;97482.42;109431;1250;60291;-74
2023/11/11 09:08:26;;;;;;;37.40;31.40;;;;;;;9.17;100.00;97479.98;109742;1249;144638;-74
2023/11/11 09:10:53;;;;;;;37.20;31.80;;;;;;;9.18;100.00;97476.94;109838;1250;59757;-75
2023/11/11 09:13:22;;;;;;;38.50;32.30;;;;;;;9.16;100.00;97476.38;109824;1250;59701;-75
2023/11/11 09:15:50;;;;;;;35.60;31.70;;;;;;;9.16;100.00;97475.30;109875;1249;66540;-75
2023/11/11 09:18:18;;;;;;;39.50;32.60;;;;;;;9.17;100.00;97476.97;109852;1250;59802;-75
2023/11/11 09:20:45;;;;;;;38.50;31.60;;;;;;;9.20;100.00;97472.44;109822;1251;62502;-75
2023/11/11 09:23:12;;;;;;;39.90;32.00;;;;;;;9.21;100.00;97470.48;109868;1250;59800;-75
2023/11/11 09:25:38;;;;;;;41.40;36.00;;;;;;;9.20;100.00;97471.80;109517;1249;59783;-74
2023/11/11 09:28:06;;;;;;;39.50;33.90;;;;;;;9.20;100.00;97473.60;109594;1250;68117;-75
2023/11/11 09:30:33;;;;;;;43.00;36.20;;;;;;;9.19;100.00;97470.98;109894;1250;61146;-74
2023/11/11 09:33:02;;;;;;;47.40;37.00;;;;;;;9.22;100.00;97472.27;109798;1249;73718;-74
2023/11/11 09:35:28;;;;;;;44.30;37.60;;;;;;;9.26;100.00;97475.21;109849;1249;59795;-74
2023/11/11 09:37:55;;;;;;;41.70;34.20;;;;;;;9.28;100.00;97474.16;109883;1250;59963;-74
2023/11/11 09:40:21;;;;;;;47.10;37.60;;;;;;;9.27;100.00;97471.59;109874;1250;65307;-74
2023/11/11 09:42:48;;;;;;;48.00;37.10;;;;;;;9.26;100.00;97472.54;109832;1250;60398;-74
2023/11/11 09:45:15;;;;;;;44.00;37.70;;;;;;;9.28;100.00;97471.17;109842;1250;65154;-73
2023/11/11 09:47:44;;;;;;;45.30;37.40;;;;;;;9.29;100.00;97470.67;109870;1250;59775;-74
2023/11/11 09:50:13;;;;;;;45.30;36.70;;;;;;;9.30;100.00;97464.89;109868;1249;59671;-74
2023/11/11 09:52:41;;;;;;;47.70;38.20;;;;;;;9.32;100.00;97463.66;109899;1250;65621;-74
2023/11/11 09:55:09;;;;;;;44.60;37.00;;;;;;;9.37;100.00;97459.16;109866;1250;61447;-75
2023/11/11 09:57:38;;;;;;;48.50;36.70;;;;;;;9.41;100.00;97456.82;109825;1249;64123;-75
2023/11/11 10:00:07;;;;;;;40.20;33.60;;;;;;;9.49;100.00;97457.04;109828;1249;59909;-75
2023/11/11 10:02:34;;;;;;;47.70;38.10;;;;;;;9.57;100.00;97454.42;109415;1250;59834;-75
2023/11/11 10:05:00;;;;;;;44.40;36.10;;;;;;;9.64;100.00;97453.95;109831;1250;67905;-75
2023/11/11 10:07:27;;;;;;;40.20;35.00;;;;;;;9.72;100.00;97448.15;109496;1249;60054;-73
2023/11/11 10:09:55;;;;;;;45.10;36.80;;;;;;;9.78;100.00;97448.70;109842;1249;64926;-74
2023/11/11 10:12:24;;;;;;;44.30;37.30;;;;;;;9.82;100.00;97447.97;109836;1250;59790;-74
2023/11/11 10:14:50;;;;;;;45.90;38.50;;;;;;;9.83;100.00;97446.29;109861;1250;59875;-75
2023/11/11 10:17:18;;;;;;;46.90;37.20;;;;;;;9.83;100.00;97445.21;109859;1250;67239;-75
2023/11/11 10:19:45;;;;;;;44.90;37.10;;;;;;;9.84;100.00;97445.44;109863;1250;60177;-75
2023/11/11 10:22:11;;;;;;;42.20;36.70;;;;;;;9.91;100.00;97444.17;109568;1249;64010;-75
2023/11/11 10:24:43;;;;;;;44.40;36.80;;;;;;;9.95;100.00;97443.28;109850;1250;59854;-74
2023/11/11 10:27:10;;;;;;;43.60;34.90;;;;;;;9.96;100.00;97441.02;109836;1249;59848;-74
2023/11/11 10:29:36;;;;;;;44.10;37.40;;;;;;;9.95;100.00;97439.59;109856;1249;66720;-75
2023/11/11 10:32:08;;;;;;;43.80;36.40;;;;;;;9.87;100.00;97438.29;109454;1249;60096;-74
2023/11/11 10:34:36;;;;;;;45.50;37.60;;;;;;;9.83;100.00;97432.77;109834;1250;64016;-74
2023/11/11 10:37:04;;;;;;;46.80;36.80;;;;;;;9.85;100.00;97426.37;109859;1251;59821;-75
2023/11/11 10:39:34;;;;;;;44.70;37.30;;;;;;;9.92;100.00;97423.83;109531;1250;59915;-74
2023/11/11 10:42:02;;;;;;;42.50;35.40;;;;;;;9.98;100.00;97422.75;109893;1251;76594;-75
2023/11/11 10:44:30;;;;;;;45.30;35.90;;;;;;;10.01;100.00;97422.14;109853;1249;60178;-75
2023/11/11 10:46:57;;;;;;;49.00;40.60;;;;;;;10.04;100.00;97416.55;109866;1249;72650;-74
2023/11/11 10:49:27;;;;;;;43.40;36.70;;;;;;;10.02;100.00;97414.27;109861;1249;59749;-74
2023/11/11 10:51:59;;;;;;;49.90;39.90;;;;;;;9.98;100.00;97413.36;109893;1250;59910;-75
2023/11/11 10:54:26;;;;;;;46.90;36.70;;;;;;;10.01;100.00;97415.95;109548;1250;66573;-75
2023/11/11 10:56:56;;;;;;;41.30;35.60;;;;;;;10.06;100.00;97413.00;109886;1249;67850;-74
2023/11/11 10:59:26;;;;;;;38.00;33.40;;;;;;;10.11;100.00;97412.20;109869;1250;64063;-73
2023/11/11 11:01:54;;;;;;;41.40;35.80;;;;;;;10.11;100.00;97412.69;109821;1250;60084;-74
2023/11/11 11:04:26;;;;;;;44.80;36.00;;;;;;;10.16;100.00;97409.30;109855;1250;59765;-74
2023/11/11 11:07:03;;;;;;;43.20;34.20;;;;;;;10.21;100.00;97405.99;109592;1250;66529;-75
2023/11/11 11:09:43;;;;;;;45.90;37.10;;;;;;;10.23;100.00;97407.88;109811;1250;59776;-74